首页
METAR-TAF:

METAR-TAF

机场 :

New Orleans Naval Air Station Joint Reserve Base (Alvin Callender Field)

新奥尔良, 路易斯安那州, 美国

纬度: 29-50-14N, 经度: 090-01-28W, 海拔: 0米

当前天气观测

该预报发布于1小时和12分钟前的13:55 UTC
风速5节,风向西转西北
温度 9°C
湿度 71%
气压 1015 hPa
能見度: 16.1公里
少量云层高于25000英尺

METAR: KNBG 151355Z 29005KT 10SM FEW250 09/04 A2998 RMK AO2 SLP152 T00890044 $

时间: 09:07 (15:07 UTC)

预报

预报有效从15日的 07点(UTC)到 16日的 07点(UTC)
风速10节,风向西北
能见度10公里或以上
散云层高于3000英尺
散云层高于10000英尺
成为
从 15日的 10点(UTC)到 15日的 12点(UTC)
风速10节,风向北转西北
散云层高于3000英尺
散云层高于25000英尺
成为
从 15日的 14点(UTC)到 15日的 16点(UTC)
风速15节,风向西转西北,有时为30节阵风
能见度10公里或以上
天空无云
成为
从 15日的 19点(UTC)到 15日的 21点(UTC)
风速10节,风向西,有时为20节阵风
能見度: 0714
散云层高于25000英尺

TAF: KNBG 1507/1607 32010KT 9999 SCT030 SCT100 QNH2983INS BECMG 1510/1512 33010KT SCT030 SCT250 QNH2987INS BECMG 1514/1516 30015G30KT 9999 SKC QNH2995INS BECMG 1519/1521 27010G20KT 9999 SCT250 QNH2994INS AUTOMATED SENSOR METWATCH 1507 TIL 1511 T09/1512Z T14/1519Z COR 0714 FN00200

超过4000个机场的气象观测和天气预报(METAR&TAF报告)。

可查询的气象台以黄色和红色小点在地图上表示。

将鼠标移到小点上方,可查看气象台名称。

然后点击查看天气观测和预报。

如需切换地图:点击带黑十字的绿色按钮放大地图;点击带横线的绿色按钮缩小地图;或者点击绿色箭头查看邻近地区的地图。


METAR-TAF: